Time;durP1;ratioP1;P1;durP2;ratioP2;P2;SDS_P1;SDS_P2;PMS_P1;PMS_P2;Temp;Humidity;BMP_temperature;BMP_pressure;BME280_temperature;BME280_humidity;BME280_pressure;Samples;Min_cycle;Max_cycle;Signal;HPM_P1;HPM_P2
2021/10/18 00:00:00;;;;;;;;;2.00;0.50;;;;;11.48;60.40;101725.84;5106294;27;45365;-80
2021/10/18 00:02:26;;;;;;;;;0.50;0.25;;;;;10.36;60.10;101549.72;5106251;27;45391;-80
2021/10/18 00:04:52;;;;;;;;;0.25;0.25;;;;;11.46;60.22;101724.06;5123558;27;46430;-80
2021/10/18 00:07:17;;;;;;;;;0.25;0.25;;;;;11.44;60.07;101725.72;5123688;27;45309;-80
2021/10/18 00:09:43;;;;;;;;;4.00;1.50;;;;;11.22;60.20;101696.59;5105251;27;45432;-80
2021/10/18 00:12:08;;;;;;;;;0.25;0.25;;;;;11.27;60.54;101708.88;5101864;27;45669;-80
2021/10/18 00:14:33;;;;;;;;;1.25;0.75;;;;;11.28;60.84;101722.81;5084517;27;47103;-80
2021/10/18 00:16:59;;;;;;;;;0.75;0.75;;;;;11.33;60.57;101721.16;5084754;27;46005;-80
2021/10/18 00:19:25;;;;;;;;;1.00;1.00;;;;;10.98;60.69;101662.25;5102962;27;45370;-80
2021/10/18 00:21:50;;;;;;;;;3.50;1.25;;;;;10.96;60.64;101663.06;5085206;27;45303;-80
2021/10/18 00:24:16;;;;;;;;;0.00;0.00;;;;;11.30;60.75;101731.53;5085869;27;48061;-80
2021/10/18 00:26:41;;;;;;;;;1.50;1.50;;;;;11.29;60.84;101724.56;5085280;27;45235;-80
2021/10/18 00:29:07;;;;;;;;;3.00;2.00;;;;;11.22;60.55;101709.66;5084824;27;45256;-80
2021/10/18 00:31:32;;;;;;;;;2.25;0.00;;;;;11.32;60.55;101729.84;5103513;27;45635;-80
2021/10/18 00:33:58;;;;;;;;;0.75;0.75;;;;;10.92;60.58;101653.41;5084240;27;48062;-80
2021/10/18 00:36:23;;;;;;;;;0.75;0.50;;;;;11.12;60.84;101692.94;5102688;27;45264;-80
2021/10/18 00:38:48;;;;;;;;;2.75;1.00;;;;;10.97;60.64;101668.28;5084587;27;45325;-80
2021/10/18 00:41:14;;;;;;;;;2.50;1.00;;;;;10.72;61.10;101615.66;5103045;27;45523;-79
2021/10/18 00:43:44;;;;;;;;;0.00;0.00;;;;;11.25;60.61;101717.53;5084213;27;46997;-80
2021/10/18 00:46:11;;;;;;;;;0.00;0.00;;;;;11.34;60.67;101725.56;5101524;27;45493;-80
2021/10/18 00:48:36;;;;;;;;;3.25;1.00;;;;;11.36;60.80;101728.19;5102706;27;45245;-80
2021/10/18 00:51:02;;;;;;;;;1.25;1.00;;;;;11.27;60.64;101713.22;5084083;27;45545;-80
2021/10/18 00:53:28;;;;;;;;;2.75;0.25;;;;;11.36;60.24;101738.63;5101041;27;46523;-80
2021/10/18 00:55:55;;;;;;;;;1.00;1.00;;;;;11.23;60.35;101724.44;5084278;27;45267;-80
2021/10/18 00:58:22;;;;;;;;;3.00;1.00;;;;;10.90;60.50;101669.88;5084110;27;45356;-80
2021/10/18 01:00:49;;;;;;;;;1.00;0.50;;;;;11.14;60.39;101728.59;5105498;27;45560;-80
2021/10/18 01:03:15;;;;;;;;;0.25;0.00;;;;;10.99;60.71;101705.69;5087273;27;47065;-80
2021/10/18 01:05:41;;;;;;;;;1.00;1.00;;;;;10.81;61.09;101687.91;5087223;27;45285;-80
2021/10/18 01:08:09;;;;;;;;;2.00;2.00;;;;;10.86;61.04;101690.63;5087568;27;45177;-81
2021/10/18 01:10:35;;;;;;;;;0.00;0.00;;;;;10.99;61.00;101700.47;5087845;27;45259;-80
2021/10/18 01:13:01;;;;;;;;;2.00;0.75;;;;;11.12;61.41;101732.03;5123311;27;45400;-81
2021/10/18 01:15:27;;;;;;;;;1.75;0.50;;;;;11.21;60.97;101736.56;5108008;27;45999;-80
2021/10/18 01:17:52;;;;;;;;;2.50;1.00;;;;;10.97;61.30;101702.16;5107904;27;45427;-80
2021/10/18 01:20:35;;;;;;;;;5.00;1.50;;;;;10.84;60.95;101687.97;5107968;27;45328;-81
2021/10/18 01:23:01;;;;;;;;;1.25;1.25;;;;;11.10;61.06;101738.91;5108081;27;47147;-80
2021/10/18 01:25:27;;;;;;;;;0.50;0.50;;;;;11.10;61.02;101733.69;5108158;27;45371;-81
2021/10/18 01:27:54;;;;;;;;;1.50;0.50;;;;;10.60;61.14;101657.06;5108760;27;45599;-80
2021/10/18 01:30:20;;;;;;;;;0.00;0.00;;;;;10.88;61.11;101697.59;5127252;27;45272;-81
2021/10/18 01:32:45;;;;;;;;;1.75;1.75;;;;;11.08;61.10;101738.00;5107451;27;47572;-80
2021/10/18 01:35:11;;;;;;;;;1.50;0.50;;;;;10.95;61.31;101716.00;5107523;27;45816;-79
2021/10/18 01:37:40;;;;;;;;;2.00;0.25;;;;;10.64;61.29;101672.78;5126325;27;45258;-80
2021/10/18 01:40:07;;;;;;;;;1.75;1.25;;;;;10.41;61.21;101643.53;5107485;27;45571;-80
2021/10/18 01:43:03;;;;;;;;;2.00;1.00;;;;;10.90;61.46;101737.63;5107016;27;46752;-81
2021/10/18 01:45:48;;;;;;;;;2.00;0.50;;;;;10.87;61.51;101721.91;5112744;27;45391;-80
2021/10/18 01:51:28;;;;;;;;;3.50;2.50;;;;;9.65;61.45;101504.75;5103542;27;45356;-80
2021/10/18 01:54:10;;;;;;;;;1.75;0.75;;;;;10.96;61.54;101723.00;5103315;27;46173;-80
2021/10/18 01:56:36;;;;;;;;;0.75;0.75;;;;;10.53;61.48;101653.41;5103637;27;45489;-79
2021/10/18 01:59:03;;;;;;;;;1.00;1.00;;;;;9.59;61.38;101502.84;5103674;27;45357;-79
2021/10/18 02:01:29;;;;;;;;;1.25;1.25;;;;;10.01;61.79;101589.72;5104142;27;45505;-79
2021/10/18 02:03:54;;;;;;;;;1.00;1.00;;;;;9.94;61.70;101585.19;5103118;27;47956;-80
2021/10/18 02:06:51;;;;;;;;;0.50;0.50;;;;;10.70;61.72;101713.72;5103202;27;45385;-80
2021/10/18 02:09:53;;;;;;;;;2.00;2.00;;;;;10.63;61.85;101717.03;5103118;27;45361;-81
2021/10/18 02:12:39;;;;;;;;;1.00;1.00;;;;;9.72;62.03;101568.16;5091679;27;45477;-80
2021/10/18 02:15:45;;;;;;;;;1.25;1.25;;;;;9.06;62.28;101462.53;5079021;28;47924;-79
2021/10/18 02:18:11;;;;;;;;;4.50;0.75;;;;;10.54;62.17;101704.66;5080046;28;45202;-79
2021/10/18 02:20:39;;;;;;;;;1.25;1.25;;;;;9.89;62.29;101594.59;5082913;28;45266;-79
2021/10/18 02:23:05;;;;;;;;;2.00;1.00;;;;;10.10;62.13;101616.78;5083656;28;45659;-78
2021/10/18 02:29:01;;;;;;;;;2.00;2.00;;;;;9.38;61.89;101498.00;5084549;27;45169;-79
2021/10/18 02:32:18;;;;;;;;;1.00;1.00;;;;;10.64;62.34;101704.03;5083865;27;45562;-79
2021/10/18 02:35:00;;;;;;;;;2.00;2.00;;;;;9.61;62.03;101510.69;5088688;27;45666;-79
2021/10/18 02:37:26;;;;;;;;;1.25;1.25;;;;;9.27;62.04;101448.34;5088735;28;46650;-79
2021/10/18 02:40:49;;;;;;;;;0.25;0.25;;;;;10.82;61.96;101696.59;5083277;28;45524;-79
2021/10/18 02:43:21;;;;;;;;;0.00;0.00;;;;;10.00;62.06;101551.53;5083202;28;45436;-79
2021/10/18 02:45:52;;;;;;;;;0.75;0.75;;;;;10.00;61.84;101543.72;5082678;28;45331;-79
2021/10/18 02:48:21;;;;;;;;;1.00;1.00;;;;;9.78;61.67;101499.84;5082133;28;45578;-79
2021/10/18 02:51:00;;;;;;;;;1.00;1.00;;;;;10.15;61.61;101531.94;5097502;27;45425;-80
2021/10/18 02:53:26;;;;;;;;;0.25;0.25;;;;;10.16;61.65;101546.69;5102686;27;45373;-79
2021/10/18 02:55:59;;;;;;;;;0.50;0.50;;;;;9.98;61.44;101493.38;5103583;27;45286;-79
2021/10/18 02:58:24;;;;;;;;;0.75;0.75;;;;;11.15;61.54;101682.59;5102791;27;47264;-79
2021/10/18 03:00:50;;;;;;;;;3.00;0.25;;;;;10.54;61.86;101584.00;5102836;27;45363;-79
2021/10/18 03:03:16;;;;;;;;;0.25;0.25;;;;;10.30;61.43;101534.00;5104370;27;45394;-79
2021/10/18 03:05:41;;;;;;;;;0.00;0.00;;;;;10.86;61.46;101620.28;5102826;27;45260;-79
2021/10/18 03:08:10;;;;;;;;;1.00;1.00;;;;;11.06;61.38;101658.94;5102446;27;47209;-79
2021/10/18 03:10:40;;;;;;;;;1.75;1.75;;;;;10.78;61.33;101609.69;5102507;27;45240;-79
2021/10/18 03:13:20;;;;;;;;;1.25;0.00;;;;;9.61;61.64;101420.59;5107850;27;45270;-83
2021/10/18 03:15:58;;;;;;;;;0.75;0.75;;;;;10.66;61.62;101578.19;5104472;27;45578;-79
2021/10/18 03:18:31;;;;;;;;;0.25;0.25;;;;;10.33;61.41;101530.59;5123889;27;45420;-79
2021/10/18 03:21:29;;;;;;;;;2.00;0.25;;;;;10.54;61.48;101555.38;5123951;27;45334;-78
2021/10/18 03:27:58;;;;;;;;;2.00;0.75;;;;;9.78;61.24;101427.91;5038694;27;45519;-78
2021/10/18 03:30:27;;;;;;;;;0.75;0.00;;;;;10.94;61.67;101644.78;5124173;27;46595;-79
2021/10/18 03:32:52;;;;;;;;;1.75;1.75;;;;;11.24;61.21;101680.16;5105049;27;46125;-78
2021/10/18 03:35:18;;;;;;;;;0.50;0.50;;;;;11.09;61.49;101646.81;5123796;27;45264;-78
2021/10/18 03:37:43;;;;;;;;;0.00;0.00;;;;;11.28;61.57;101681.97;5124135;27;45557;-79
2021/10/18 03:40:11;;;;;;;;;2.75;0.75;;;;;11.22;61.17;101660.13;5105274;27;48241;-79
2021/10/18 03:42:38;;;;;;;;;2.00;0.75;;;;;11.19;61.00;101657.44;5123711;27;45349;-79
2021/10/18 03:45:27;;;;;;;;;1.25;1.25;;;;;10.85;61.24;101609.00;5123903;27;45279;-79
2021/10/18 03:48:07;;;;;;;;;0.00;0.00;;;;;10.55;61.05;101567.53;5105221;27;45266;-79
2021/10/18 03:50:42;;;;;;;;;1.00;1.00;;;;;10.29;60.59;101528.75;5101057;27;46398;-79
2021/10/18 03:53:08;;;;;;;;;1.25;0.50;;;;;10.60;61.35;101594.56;5101128;27;45659;-79
2021/10/18 03:55:34;;;;;;;;;0.50;0.00;;;;;11.20;61.59;101704.41;5101940;27;45276;-78
2021/10/18 03:58:00;;;;;;;;;0.50;0.50;;;;;11.24;61.72;101692.31;5103633;27;45278;-78
2021/10/18 04:01:05;;;;;;;;;;;;;;;;;;;;;
2021/10/18 04:13:27;;;;;;;;;1.00;1.00;;;;;9.98;61.29;101490.78;4941892;28;45349;-78
2021/10/18 04:15:53;;;;;;;;;1.50;0.75;;;;;11.00;61.25;101680.53;4983874;28;45278;-79
2021/10/18 04:18:18;;;;;;;;;3.50;2.25;;;;;10.69;61.33;101645.97;5004906;28;45284;-80
2021/10/18 04:20:44;;;;;;;;;4.25;0.25;;;;;10.81;61.55;101672.28;5024706;28;45225;-80
2021/10/18 04:23:09;;;;;;;;;3.00;2.00;;;;;10.44;61.67;101615.00;5038252;28;46961;-80
2021/10/18 04:25:35;;;;;;;;;1.75;1.75;;;;;10.83;61.74;101688.81;5022435;28;45262;-79
2021/10/18 04:28:00;;;;;;;;;6.00;1.50;;;;;10.58;61.46;101662.22;5022873;28;45345;-81
2021/10/18 04:30:26;;;;;;;;;2.25;0.75;;;;;10.92;61.80;101711.59;5040236;28;45213;-79
2021/10/18 04:32:51;;;;;;;;;4.00;1.25;;;;;10.72;61.98;101679.91;5058992;28;47540;-79
2021/10/18 04:35:17;;;;;;;;;1.50;0.50;;;;;10.64;61.97;101661.47;5079338;28;45287;-79
2021/10/18 04:37:42;;;;;;;;;3.25;2.00;;;;;10.79;62.18;101691.31;5065690;28;45339;-79
2021/10/18 04:40:08;;;;;;;;;0.50;0.50;;;;;10.91;61.97;101722.88;5064495;28;45525;-79
2021/10/18 04:43:01;;;;;;;;;5.00;2.25;;;;;10.72;62.40;101691.16;5057651;28;46771;-84
2021/10/18 04:45:27;;;;;;;;;0.50;0.50;;;;;10.92;62.15;101722.03;5043386;28;45490;-80
2021/10/18 04:47:55;;;;;;;;;2.00;2.00;;;;;9.52;61.99;101493.13;5048520;28;45455;-84
2021/10/18 04:50:22;;;;;;;;;1.50;1.00;;;;;10.42;62.09;101636.63;5050246;28;45356;-79
2021/10/18 04:52:49;;;;;;;;;1.50;1.50;;;;;10.85;62.32;101696.69;5047046;28;48210;-79
2021/10/18 04:55:14;;;;;;;;;1.00;1.00;;;;;11.01;62.46;101730.06;5046741;28;45198;-79
2021/10/18 04:57:54;;;;;;;;;2.25;2.25;;;;;10.69;62.33;101664.19;5060275;28;45273;-79
2021/10/18 05:00:22;;;;;;;;;2.25;0.75;;;;;11.13;62.36;101731.16;5083964;28;45433;-81
2021/10/18 05:02:47;;;;;;;;;0.50;0.50;;;;;11.05;62.75;101712.75;5063834;28;46823;-79
2021/10/18 05:05:13;;;;;;;;;1.75;1.75;;;;;10.87;62.26;101685.44;5066728;28;45765;-80
2021/10/18 05:07:38;;;;;;;;;0.25;0.25;;;;;10.67;62.43;101655.47;5074792;28;46171;-80
2021/10/18 05:10:04;;;;;;;;;0.25;0.25;;;;;10.62;62.50;101645.81;5084005;27;45310;-84
2021/10/18 05:12:30;;;;;;;;;0.00;0.00;;;;;11.00;62.30;101707.44;5073387;28;46463;-81
2021/10/18 05:14:55;;;;;;;;;0.25;0.25;;;;;10.45;62.61;101605.47;5068366;28;45437;-79
2021/10/18 05:17:20;;;;;;;;;0.50;0.50;;;;;11.00;62.27;101709.19;5075584;28;45583;-81
2021/10/18 05:19:46;;;;;;;;;0.25;0.25;;;;;10.74;62.59;101646.94;5072413;28;45651;-80
2021/10/18 05:22:11;;;;;;;;;0.50;0.50;;;;;10.61;62.74;101630.16;5054279;28;47459;-80
2021/10/18 05:24:37;;;;;;;;;4.25;0.50;;;;;11.29;62.52;101737.59;5061181;28;45517;-79
2021/10/18 05:27:02;;;;;;;;;0.25;0.25;;;;;11.04;62.51;101687.56;5044363;28;45385;-79
2021/10/18 05:29:27;;;;;;;;;0.50;0.50;;;;;11.30;62.54;101728.91;5063534;28;45309;-80
2021/10/18 05:31:53;;;;;;;;;0.00;0.00;;;;;11.14;62.38;101701.66;5064177;28;45494;-81
2021/10/18 05:34:19;;;;;;;;;0.50;0.50;;;;;11.11;62.33;101699.88;5064170;28;45303;-80
2021/10/18 05:36:44;;;;;;;;;0.50;0.50;;;;;11.08;62.57;101696.28;5064172;28;45522;-81
2021/10/18 05:39:10;;;;;;;;;0.00;0.00;;;;;10.97;62.36;101686.50;5055018;28;45509;-81
2021/10/18 05:41:35;;;;;;;;;3.50;0.50;;;;;11.30;62.41;101747.16;5057390;28;45534;-84
2021/10/18 05:44:00;;;;;;;;;0.50;0.50;;;;;11.17;62.66;101719.06;5067341;28;45275;-80
2021/10/18 05:46:26;;;;;;;;;1.75;0.50;;;;;10.81;62.59;101664.47;5065115;28;45711;-82
2021/10/18 05:48:51;;;;;;;;;1.00;1.00;;;;;10.83;62.69;101681.00;5063865;28;45638;-84
2021/10/18 05:51:18;;;;;;;;;1.00;1.00;;;;;10.58;62.72;101630.09;5064623;28;45344;-81
2021/10/18 05:53:43;;;;;;;;;0.50;0.50;;;;;10.64;62.88;101646.75;5063807;28;45229;-81
2021/10/18 05:56:09;;;;;;;;;3.25;1.50;;;;;11.19;63.00;101739.13;5080666;28;44758;-78
2021/10/18 05:58:35;;;;;;;;;0.25;0.25;;;;;11.19;63.10;101746.94;5081997;28;45652;-87
2021/10/18 06:01:00;;;;;;;;;2.00;0.25;;;;;10.95;63.35;101705.56;5081472;27;46646;-82
2021/10/18 06:03:26;;;;;;;;;6.50;3.00;;;;;11.03;63.09;101717.94;5078080;28;45138;-80
2021/10/18 06:05:52;;;;;;;;;1.50;0.75;;;;;11.17;62.62;101745.13;5078265;28;45399;-84
2021/10/18 06:08:17;;;;;;;;;0.50;0.50;;;;;11.26;62.90;101764.47;5076603;28;45430;-79
2021/10/18 06:10:44;;;;;;;;;0.25;0.25;;;;;10.96;63.03;101708.22;5070285;27;46026;-81
2021/10/18 06:13:10;;;;;;;;;1.50;0.25;;;;;11.28;62.97;101759.31;5069220;27;45477;-81
2021/10/18 06:15:36;;;;;;;;;1.25;0.50;;;;;11.07;63.01;101729.31;5062104;28;45421;-81
2021/10/18 06:18:09;;;;;;;;;0.25;0.25;;;;;11.27;63.18;101758.41;5051601;28;45513;-80
2021/10/18 06:20:34;;;;;;;;;0.00;0.00;;;;;10.95;62.61;101710.78;5043188;28;45443;-80
2021/10/18 06:22:59;;;;;;;;;0.00;0.00;;;;;10.96;62.94;101721.25;5068472;28;45435;-80
2021/10/18 06:25:25;;;;;;;;;0.50;0.50;;;;;11.08;63.16;101741.50;5079717;28;45322;-80
2021/10/18 06:27:55;;;;;;;;;0.50;0.00;;;;;10.96;63.25;101710.81;5057165;28;45360;-80
2021/10/18 06:30:21;;;;;;;;;1.25;1.25;;;;;11.06;63.16;101727.56;5063261;28;47127;-78
2021/10/18 06:32:46;;;;;;;;;1.00;0.25;;;;;11.31;63.03;101761.09;5060858;28;45242;-78
2021/10/18 06:35:12;;;;;;;;;1.00;1.00;;;;;11.18;63.33;101741.69;5061221;28;45730;-79
2021/10/18 06:37:38;;;;;;;;;0.50;0.50;;;;;10.93;63.11;101697.72;5061972;28;45385;-76
2021/10/18 06:40:03;;;;;;;;;1.50;1.50;;;;;11.06;63.04;101713.66;5062906;28;45394;-78
2021/10/18 06:42:29;;;;;;;;;2.00;0.25;;;;;11.35;63.43;101756.00;5062735;28;45278;-79
2021/10/18 06:44:54;;;;;;;;;2.00;1.25;;;;;11.18;62.79;101739.97;5078652;28;45279;-79
2021/10/18 06:47:19;;;;;;;;;0.50;0.50;;;;;11.35;62.96;101765.53;5062319;28;45335;-78
2021/10/18 06:49:45;;;;;;;;;1.00;1.00;;;;;11.47;62.75;101783.16;5061595;28;48068;-79
2021/10/18 06:52:10;;;;;;;;;1.75;1.00;;;;;11.10;63.26;101718.97;5063438;28;45389;-79
2021/10/18 06:54:38;;;;;;;;;2.00;0.50;;;;;11.50;62.76;101776.31;5061573;28;45364;-78
2021/10/18 06:57:04;;;;;;;;;3.25;1.75;;;;;11.56;62.91;101775.53;5063199;28;45275;-79
2021/10/18 06:59:31;;;;;;;;;5.75;1.00;;;;;11.61;62.98;101776.50;5062044;28;46685;-79
2021/10/18 07:01:56;;;;;;;;;1.50;1.50;;;;;11.65;62.93;101780.97;5064404;28;45163;-82
2021/10/18 07:04:23;;;;;;;;;0.50;0.50;;;;;11.69;62.77;101781.00;5062145;28;45403;-78
2021/10/18 07:06:48;;;;;;;;;1.25;0.00;;;;;11.63;62.35;101766.09;5062231;28;45376;-79
2021/10/18 07:09:14;;;;;;;;;0.25;0.25;;;;;11.57;62.31;101742.50;5062024;28;48342;-79
2021/10/18 07:14:28;;;;;;;;;2.75;1.00;;;;;11.85;62.65;101785.69;5062545;28;45669;-79
2021/10/18 07:16:53;;;;;;;;;0.50;0.50;;;;;11.58;62.69;101739.06;5054315;28;45628;-80
2021/10/18 07:19:19;;;;;;;;;0.00;0.00;;;;;11.99;61.96;101798.13;5055264;28;45675;-80
2021/10/18 07:21:46;;;;;;;;;0.25;0.25;;;;;11.94;62.35;101779.78;5057356;28;45326;-80
2021/10/18 07:24:13;;;;;;;;;2.00;1.00;;;;;11.96;62.04;101770.25;5059633;28;45344;-82
2021/10/18 07:26:38;;;;;;;;;0.00;0.00;;;;;11.63;61.93;101706.13;5060208;28;45512;-85
2021/10/18 07:29:04;;;;;;;;;3.00;0.00;;;;;11.66;62.16;101722.72;5055299;28;47191;-80
2021/10/18 07:31:29;;;;;;;;;0.50;0.00;;;;;11.94;62.07;101761.50;5050308;28;45655;-81
2021/10/18 07:34:01;;;;;;;;;1.50;0.75;;;;;11.96;62.04;101761.53;5059378;28;45797;-81
2021/10/18 07:36:27;;;;;;;;;0.00;0.00;;;;;11.90;62.26;101750.16;5054671;28;46458;-80
2021/10/18 07:38:55;;;;;;;;;3.00;1.25;;;;;11.89;61.98;101745.75;5060866;28;47105;-80
2021/10/18 07:41:21;;;;;;;;;1.00;1.00;;;;;12.19;62.15;101788.09;5070779;28;45530;-83
2021/10/18 07:43:47;;;;;;;;;2.50;0.75;;;;;11.76;62.30;101713.34;5063414;27;45367;-80
2021/10/18 07:46:15;;;;;;;;;0.00;0.00;;;;;12.24;62.22;101783.88;5067994;28;45481;-79
2021/10/18 07:48:41;;;;;;;;;2.75;1.50;;;;;12.09;62.10;101747.91;5084020;28;46643;-81
2021/10/18 07:51:06;;;;;;;;;1.00;0.25;;;;;12.30;62.16;101762.22;5076782;28;45379;-81
2021/10/18 07:53:32;;;;;;;;;0.50;0.50;;;;;12.34;62.01;101758.78;5070687;28;45441;-82
2021/10/18 07:55:58;;;;;;;;;1.00;0.50;;;;;12.16;61.95;101726.28;5076990;28;45256;-83
2021/10/18 07:58:23;;;;;;;;;0.00;0.00;;;;;12.32;61.93;101757.91;5078462;27;47433;-82
2021/10/18 08:00:48;;;;;;;;;1.25;1.25;;;;;12.44;61.95;101779.84;5069213;28;46100;-80
2021/10/18 08:03:14;;;;;;;;;2.50;0.75;;;;;12.37;62.29;101771.03;5070534;27;45310;-83
2021/10/18 08:05:39;;;;;;;;;0.75;0.75;;;;;12.36;62.05;101775.38;5061683;28;45564;-79
2021/10/18 08:08:06;;;;;;;;;3.00;0.50;;;;;12.30;61.97;101767.44;5067313;28;47321;-81
2021/10/18 08:10:32;;;;;;;;;2.75;0.75;;;;;12.60;61.89;101815.84;5076295;28;45535;-83
2021/10/18 08:12:59;;;;;;;;;0.75;0.75;;;;;12.69;61.98;101811.63;5081814;28;45279;-83
2021/10/18 08:15:26;;;;;;;;;1.00;1.00;;;;;12.54;61.73;101768.72;5087458;28;45224;-83
2021/10/18 08:17:52;;;;;;;;;2.00;0.00;;;;;12.85;61.53;101800.56;5086062;28;46547;-83
2021/10/18 08:23:12;;;;;;;;;1.75;0.75;;;;;11.98;61.10;101651.13;5068159;27;44870;-80
2021/10/18 08:25:37;;;;;;;;;1.00;1.00;;;;;13.05;61.31;101826.16;5078942;27;45501;-85
2021/10/18 08:28:03;;;;;;;;;1.00;1.00;;;;;11.70;61.32;101589.78;5072855;27;48225;-81
2021/10/18 08:30:28;;;;;;;;;1.00;1.00;;;;;12.28;61.23;101694.28;5070479;28;45599;-84
2021/10/18 08:32:54;;;;;;;;;1.00;0.00;;;;;13.06;61.02;101804.38;5075156;28;45371;-85
2021/10/18 08:35:20;;;;;;;;;0.00;0.00;;;;;12.85;61.04;101756.16;5076188;28;45499;-80
2021/10/18 08:40:34;;;;;;;;;2.00;1.00;;;;;13.24;60.89;101774.13;5066074;28;45296;-82
2021/10/18 08:43:07;;;;;;;;;2.25;0.00;;;;;13.43;60.15;101786.63;5075599;28;45333;-79
2021/10/18 08:45:34;;;;;;;;;0.25;0.25;;;;;13.22;60.17;101737.50;5066291;28;45355;-79
2021/10/18 08:48:00;;;;;;;;;0.25;0.25;;;;;13.48;60.31;101777.94;5084318;28;45524;-80
2021/10/18 08:50:26;;;;;;;;;1.25;0.25;;;;;13.60;60.02;101796.44;5065557;28;45339;-81
2021/10/18 08:52:51;;;;;;;;;0.75;0.75;;;;;13.46;60.19;101771.81;5065893;28;45479;-79
2021/10/18 08:55:18;;;;;;;;;3.00;1.00;;;;;13.71;60.20;101816.63;5072875;28;45458;-80
2021/10/18 08:57:43;;;;;;;;;3.50;2.00;;;;;13.37;60.04;101762.09;5062830;28;47365;-80
2021/10/18 09:00:34;;;;;;;;;1.25;1.25;;;;;13.73;60.38;101797.50;5064584;28;46161;-80
2021/10/18 09:03:00;;;;;;;;;1.00;0.75;;;;;13.73;60.17;101810.59;5076024;28;45375;-80
2021/10/18 09:05:25;;;;;;;;;1.25;1.25;;;;;13.83;60.25;101813.28;5076245;28;45240;-79
2021/10/18 09:07:51;;;;;;;;;0.75;0.75;;;;;13.81;60.61;101798.47;5063546;28;47390;-80
2021/10/18 09:10:16;;;;;;;;;2.00;2.00;;;;;12.74;60.20;101598.34;5084267;28;45244;-79
2021/10/18 09:12:44;;;;;;;;;0.00;0.00;;;;;14.01;60.20;101807.41;5071035;28;45383;-79
2021/10/18 09:15:22;;;;;;;;;1.25;1.25;;;;;14.06;60.11;101779.56;5068158;28;45260;-78
2021/10/18 09:17:53;;;;;;;;;0.75;0.75;;;;;13.49;60.21;101681.22;5081447;28;46397;-80
2021/10/18 09:20:27;;;;;;;;;0.00;0.00;;;;;13.34;59.91;101652.22;5064638;28;45582;-80
2021/10/18 09:22:54;;;;;;;;;2.25;1.00;;;;;13.72;60.12;101716.34;5065057;28;45823;-78
2021/10/18 09:25:36;;;;;;;;;1.00;0.00;;;;;14.17;60.32;101782.25;5061905;28;45604;-78
2021/10/18 09:28:21;;;;;;;;;0.75;0.25;;;;;13.47;60.11;101667.19;5070641;28;45387;-80
2021/10/18 09:30:48;;;;;;;;;2.00;1.00;;;;;13.86;60.43;101729.56;5096240;27;45426;-80
2021/10/18 09:33:39;;;;;;;;;2.50;1.75;;;;;13.96;60.42;101747.13;5091913;27;45411;-78
2021/10/18 09:36:10;;;;;;;;;0.00;0.00;;;;;13.63;59.85;101691.81;5075510;28;45308;-78
2021/10/18 09:38:36;;;;;;;;;0.50;0.00;;;;;13.81;60.03;101717.31;5057641;28;48347;-79
2021/10/18 09:41:02;;;;;;;;;1.00;1.00;;;;;14.29;60.30;101785.03;5083182;28;45379;-80
2021/10/18 09:43:34;;;;;;;;;1.50;1.50;;;;;14.32;60.09;101789.41;5064407;28;45465;-80
2021/10/18 09:46:35;;;;;;;;;2.25;2.00;;;;;14.13;60.12;101743.81;5079299;28;45408;-80
2021/10/18 10:53:22;;;;;;;;;0.50;0.50;;;;;16.03;59.60;101788.75;5066400;28;45339;-80
2021/10/18 10:55:50;;;;;;;;;1.00;1.00;;;;;15.92;58.46;101738.81;5062489;28;45558;-80
2021/10/18 10:58:48;;;;;;;;;1.00;1.00;;;;;16.26;58.80;101778.31;5061735;28;45193;-79
2021/10/18 11:01:47;;;;;;;;;2.00;0.75;;;;;16.26;58.03;101764.31;5063685;28;45435;-80
2021/10/18 11:04:30;;;;;;;;;0.50;0.50;;;;;16.42;58.06;101768.69;5044586;28;45302;-78
2021/10/18 11:06:58;;;;;;;;;2.50;1.00;;;;;16.18;57.96;101717.91;5044208;28;47109;-79
2021/10/18 11:09:48;;;;;;;;;3.25;2.25;;;;;16.38;58.34;101764.31;5057340;28;45430;-80
2021/10/18 11:12:16;;;;;;;;;0.00;0.00;;;;;16.32;58.30;101759.91;5046944;28;45537;-80
2021/10/18 11:15:03;;;;;;;;;1.25;0.75;;;;;15.89;58.24;101687.16;5046888;28;45498;-80
2021/10/18 11:17:31;;;;;;;;;9.00;2.00;;;;;16.33;58.59;101761.66;5067414;28;45333;-79
2021/10/18 11:20:00;;;;;;;;;2.00;2.00;;;;;16.40;58.59;101769.56;5076513;28;45243;-79
2021/10/18 11:22:32;;;;;;;;;1.25;1.25;;;;;16.27;58.51;101742.41;5061251;28;45482;-78
2021/10/18 11:24:59;;;;;;;;;2.00;2.00;;;;;16.27;58.23;101731.91;5054615;28;45510;-78
2021/10/18 11:27:27;;;;;;;;;4.00;2.00;;;;;16.34;58.61;101747.69;5069349;28;46309;-78
2021/10/18 11:29:58;;;;;;;;;0.25;0.25;;;;;16.50;58.47;101766.06;5082520;28;45490;-78
2021/10/18 11:32:25;;;;;;;;;2.00;2.00;;;;;16.62;58.83;101759.94;5081861;28;45505;-80
2021/10/18 11:35:03;;;;;;;;;2.75;2.00;;;;;16.43;58.32;101709.13;5071808;28;45441;-80
2021/10/18 11:37:57;;;;;;;;;0.50;0.50;;;;;16.68;58.75;101741.53;5062847;28;45395;-80
2021/10/18 11:40:36;;;;;;;;;2.00;2.00;;;;;16.81;58.25;101749.38;5075531;28;44883;-79
2021/10/18 11:43:13;;;;;;;;;1.75;0.75;;;;;16.69;58.86;101721.38;5082100;28;44708;-79
2021/10/18 11:45:41;;;;;;;;;1.75;1.75;;;;;16.90;58.57;101744.13;5084133;28;45439;-79
2021/10/18 11:48:18;;;;;;;;;0.25;0.25;;;;;16.79;58.83;101707.34;5069976;28;47498;-79
2021/10/18 11:50:46;;;;;;;;;0.50;0.00;;;;;17.11;58.94;101739.72;5067470;28;45248;-82
2021/10/18 11:53:13;;;;;;;;;1.00;1.00;;;;;17.10;58.19;101728.31;5080045;27;45559;-86
2021/10/18 11:55:48;;;;;;;;;0.25;0.25;;;;;17.02;58.98;101708.16;5064647;28;45439;-84
2021/10/18 11:58:20;;;;;;;;;2.00;1.00;;;;;16.98;58.86;101704.66;5069771;28;47081;-83
2021/10/18 12:00:47;;;;;;;;;1.00;1.00;;;;;16.87;59.58;101691.53;5085747;28;45473;-84
2021/10/18 12:03:17;;;;;;;;;2.75;0.75;;;;;17.05;59.57;101711.66;5064869;28;45250;-85
2021/10/18 12:05:47;;;;;;;;;1.50;1.50;;;;;17.10;59.42;101706.41;5078416;27;44973;-83
2021/10/18 12:08:18;;;;;;;;;2.00;1.00;;;;;17.01;59.33;101673.09;5058960;28;47602;-83
2021/10/18 12:10:46;;;;;;;;;0.00;0.00;;;;;16.89;59.57;101647.72;5060577;28;45470;-81
2021/10/18 12:13:28;;;;;;;;;0.75;0.25;;;;;17.10;59.19;101666.97;5061827;28;45237;-82
2021/10/18 12:15:57;;;;;;;;;0.00;0.00;;;;;17.44;59.47;101708.03;5062833;28;45562;-82
2021/10/18 12:18:30;;;;;;;;;0.50;0.50;;;;;17.53;59.56;101708.00;5063330;28;47545;-82
2021/10/18 12:21:11;;;;;;;;;0.50;0.50;;;;;16.90;59.35;101574.94;5055945;28;45577;-82
2021/10/18 12:23:48;;;;;;;;;1.00;1.00;;;;;17.72;59.04;101679.81;5060132;28;45493;-83
2021/10/18 12:26:13;;;;;;;;;2.00;1.00;;;;;17.74;59.34;101687.69;5063403;28;45581;-81
2021/10/18 12:29:02;;;;;;;;;1.75;1.00;;;;;16.98;58.93;101546.88;5053093;28;47306;-81
2021/10/18 12:31:48;;;;;;;;;1.00;0.00;;;;;16.75;59.41;101513.66;5063327;28;45766;-84
2021/10/18 12:34:31;;;;;;;;;1.25;1.00;;;;;17.42;59.29;101639.63;5049165;28;45462;-80
2021/10/18 12:37:05;;;;;;;;;0.50;0.00;;;;;17.48;59.34;101647.47;5068071;28;45280;-81
2021/10/18 12:42:54;;;;;;;;;0.00;0.00;;;;;16.81;59.62;101532.03;5065748;28;45485;-81
2021/10/18 12:45:19;;;;;;;;;1.00;1.00;;;;;17.35;59.95;101616.84;5068379;28;45519;-82
2021/10/18 12:47:54;;;;;;;;;0.00;0.00;;;;;17.41;60.05;101619.44;5061052;28;45329;-80
2021/10/18 12:50:22;;;;;;;;;1.00;1.00;;;;;16.98;59.63;101549.50;5068417;28;46505;-82
2021/10/18 12:52:54;;;;;;;;;1.75;0.25;;;;;17.82;59.76;101680.63;5080725;28;45320;-81
2021/10/18 12:55:25;;;;;;;;;1.00;0.00;;;;;17.16;60.14;101561.72;5083483;28;45164;-81
2021/10/18 12:57:56;;;;;;;;;2.00;0.00;;;;;17.45;59.77;101600.13;5075984;28;45357;-81
2021/10/18 13:00:27;;;;;;;;;0.00;0.00;;;;;17.61;59.97;101628.97;5087300;28;46943;-80
2021/10/18 13:02:54;;;;;;;;;0.00;0.00;;;;;16.93;59.72;101498.66;5077832;28;45248;-81
2021/10/18 13:05:30;;;;;;;;;1.25;0.00;;;;;17.34;59.53;101576.50;5062336;28;45261;-82
2021/10/18 13:07:58;;;;;;;;;0.25;0.25;;;;;17.93;59.75;101658.59;5082865;28;44705;-81
2021/10/18 13:10:29;;;;;;;;;2.00;0.00;;;;;17.94;59.61;101666.47;5069436;28;48216;-80
2021/10/18 13:12:55;;;;;;;;;0.00;0.00;;;;;17.79;59.89;101635.88;5094683;27;45836;-81
2021/10/18 13:15:21;;;;;;;;;0.50;0.50;;;;;17.82;60.19;101634.97;5059980;28;45462;-82